createdAt,value
2019-04-07T00:00:51.969Z,9.8
2019-04-07T00:01:53.308Z,9.7
2019-04-07T00:02:54.658Z,9.7
2019-04-07T00:03:56.005Z,9.8
2019-04-07T00:05:09.010Z,9.8
2019-04-07T00:05:58.670Z,9.7
2019-04-07T00:07:00.021Z,9.7
2019-04-07T00:08:01.815Z,9.7
2019-04-07T00:09:02.741Z,9.6
2019-04-07T00:10:04.051Z,9.6
2019-04-07T00:11:05.745Z,9.6
2019-04-07T00:12:07.082Z,9.6
2019-04-07T00:13:08.047Z,9.6
2019-04-07T00:14:09.435Z,9.6
2019-04-07T00:15:11.307Z,9.6
2019-04-07T00:16:12.132Z,9.5
2019-04-07T00:17:13.818Z,9.5
2019-04-07T00:18:14.835Z,9.5
2019-04-07T00:19:16.198Z,9.5
2019-04-07T00:20:17.552Z,9.5
2019-04-07T00:21:18.896Z,9.5
2019-04-07T00:22:20.252Z,9.5
2019-04-07T00:23:21.598Z,9.4
2019-04-07T00:24:22.953Z,9.4
2019-04-07T00:25:24.474Z,9.5
2019-04-07T00:26:25.622Z,9.4
2019-04-07T00:27:26.963Z,9.4
2019-04-07T00:28:28.327Z,9.4
2019-04-07T00:29:29.692Z,9.4
2019-04-07T00:30:31.587Z,9.3
2019-04-07T00:31:32.363Z,9.4
2019-04-07T00:32:33.826Z,9.4
2019-04-07T00:33:35.028Z,9.3
2019-04-07T00:34:36.875Z,9.3
2019-04-07T00:35:37.716Z,9.3
2019-04-07T00:36:39.640Z,9.3
2019-04-07T00:37:40.391Z,9.3
2019-04-07T00:38:41.757Z,9.3
2019-04-07T00:39:43.459Z,9.3
2019-04-07T00:40:44.948Z,9.4
2019-04-07T00:41:46.326Z,9.4
2019-04-07T00:42:47.083Z,9.4
2019-04-07T00:43:48.434Z,9.3
2019-04-07T00:44:49.833Z,9.2
2019-04-07T00:45:51.183Z,9.3
2019-04-07T00:46:52.627Z,9.3
2019-04-07T00:47:54.297Z,9.3
2019-04-07T00:48:55.188Z,9.3
2019-04-07T00:49:56.543Z,9.4
2019-04-07T00:50:57.933Z,9.2
2019-04-07T00:51:59.630Z,9.3
2019-04-07T00:53:01.278Z,9.3
2019-04-07T00:54:01.992Z,9.3
2019-04-07T00:55:03.486Z,9.3
2019-04-07T00:56:05.092Z,9.3
2019-04-07T00:57:06.519Z,9.3
2019-04-07T00:58:07.335Z,9.3
2019-04-07T00:59:08.817Z,9.2
2019-04-07T01:00:10.464Z,9.1
2019-04-07T01:01:11.678Z,9.3
2019-04-07T01:02:13.161Z,9.1
2019-04-07T01:03:14.067Z,9.3
2019-04-07T01:04:15.417Z,9.1
2019-04-07T01:05:16.889Z,9.1
2019-04-07T01:06:18.696Z,9.2
2019-04-07T01:07:20.050Z,9.2
2019-04-07T01:08:20.804Z,9.1
2019-04-07T01:09:22.369Z,9.1
2019-04-07T01:10:24.174Z,9.1
2019-04-07T01:11:24.834Z,9.1
2019-04-07T01:12:26.177Z,9.0
2019-04-07T01:13:27.570Z,9.0
2019-04-07T01:14:29.017Z,9.1
2019-04-07T01:15:30.534Z,9.0
2019-04-07T01:16:31.657Z,8.9
2019-04-07T01:17:33.314Z,9.0
2019-04-07T01:18:35.445Z,9.0
2019-04-07T01:19:35.610Z,9.0
2019-04-07T01:20:36.962Z,9.0
2019-04-07T01:21:38.347Z,9.0
2019-04-07T01:22:39.835Z,9.0
2019-04-07T01:23:41.497Z,8.8
2019-04-07T01:24:42.996Z,8.9
2019-04-07T01:25:43.702Z,8.9
2019-04-07T01:26:45.066Z,8.8
2019-04-07T01:27:46.610Z,8.8
2019-04-07T01:28:48.231Z,8.8
2019-04-07T01:29:49.185Z,8.8
2019-04-07T01:30:51.603Z,8.8
2019-04-07T01:31:51.842Z,8.7
2019-04-07T01:32:53.301Z,8.7
2019-04-07T01:33:54.570Z,8.7
2019-04-07T01:34:55.947Z,8.7
2019-04-07T01:35:57.300Z,8.7
2019-04-07T01:36:58.636Z,8.7
2019-04-07T01:38:00.005Z,8.7
2019-04-07T01:39:01.472Z,8.7
2019-04-07T01:40:03.078Z,8.7
2019-04-07T01:41:04.148Z,8.6
2019-04-07T01:42:05.816Z,8.7
2019-04-07T01:43:06.692Z,8.6
2019-04-07T01:44:08.068Z,8.6
2019-04-07T01:45:09.417Z,8.7
2019-04-07T01:46:10.988Z,8.7
2019-04-07T01:47:12.323Z,8.6
2019-04-07T01:48:13.906Z,8.6
2019-04-07T01:49:15.017Z,8.6
2019-04-07T01:50:16.143Z,8.7
2019-04-07T01:51:17.737Z,8.7
2019-04-07T01:52:19.527Z,8.6
2019-04-07T01:53:20.171Z,8.7
2019-04-07T01:54:21.747Z,8.7
2019-04-07T01:55:23.504Z,8.6
2019-04-07T01:56:24.224Z,8.5
2019-04-07T01:57:25.686Z,8.6
2019-04-07T01:58:27.326Z,8.6
2019-04-07T01:59:28.847Z,8.6
2019-04-07T02:00:29.573Z,8.6
2019-04-07T02:01:31.337Z,8.6
2019-04-07T02:02:32.446Z,8.7
2019-04-07T02:03:34.149Z,8.6
2019-04-07T02:04:35.807Z,8.6
2019-04-07T02:05:36.439Z,8.6
2019-04-07T02:06:37.689Z,8.6
2019-04-07T02:07:39.099Z,8.7
2019-04-07T02:08:40.400Z,8.8
2019-04-07T02:09:41.871Z,8.8
2019-04-07T02:10:44.413Z,8.9
2019-04-07T02:11:45.157Z,8.9
2019-04-07T02:12:45.744Z,9.0
2019-04-07T02:13:47.097Z,9.0
2019-04-07T02:14:48.493Z,9.1
2019-04-07T02:15:49.863Z,9.1
2019-04-07T02:16:51.257Z,9.2
2019-04-07T02:17:52.857Z,9.1
2019-04-07T02:18:54.288Z,9.3
2019-04-07T02:19:55.935Z,9.3
2019-04-07T02:20:56.732Z,9.3
2019-04-07T02:21:58.225Z,9.3
2019-04-07T02:22:59.828Z,9.3
2019-04-07T02:24:00.576Z,9.3
2019-04-07T02:25:01.935Z,9.2
2019-04-07T02:26:03.535Z,9.4
2019-04-07T02:27:05.176Z,9.3
2019-04-07T02:28:06.440Z,9.3
2019-04-07T02:29:07.243Z,9.4
2019-04-07T02:30:08.625Z,9.3
2019-04-07T02:31:09.956Z,9.3
2019-04-07T02:32:11.319Z,9.4
2019-04-07T02:33:12.768Z,9.3
2019-04-07T02:34:13.968Z,9.3
2019-04-07T02:35:16.483Z,9.3
2019-04-07T02:36:24.763Z,9.3
2019-04-07T02:37:18.010Z,9.3
2019-04-07T02:38:19.423Z,9.2
2019-04-07T02:39:21.436Z,9.1
2019-04-07T02:40:22.056Z,9.1
2019-04-07T02:41:24.065Z,9.2
2019-04-07T02:42:25.063Z,9.3
2019-04-07T02:43:26.149Z,9.1
2019-04-07T02:44:27.501Z,9.1
2019-04-07T02:45:28.916Z,9.2
2019-04-07T02:46:31.389Z,9.1
2019-04-07T02:47:31.665Z,9.1
2019-04-07T02:48:33.737Z,9.1
2019-04-07T02:49:34.545Z,9.1
2019-04-07T02:50:36.669Z,9.1
2019-04-07T02:51:38.244Z,9.1
2019-04-07T02:52:38.920Z,9.0
2019-04-07T02:53:41.011Z,9.0
2019-04-07T02:54:42.064Z,9.0
2019-04-07T02:55:42.816Z,9.0
2019-04-07T02:56:44.205Z,9.0
2019-04-07T02:57:47.399Z,9.0
2019-04-07T02:58:47.628Z,9.1
2019-04-07T02:59:48.426Z,9.0
2019-04-07T03:00:50.646Z,9.0
2019-04-07T03:01:51.932Z,9.0
2019-04-07T03:02:52.484Z,8.8
2019-04-07T03:03:54.363Z,8.9
2019-04-07T03:04:55.204Z,8.8
2019-04-07T03:05:56.611Z,8.9
2019-04-07T03:06:58.468Z,8.8
2019-04-07T03:07:59.497Z,8.9
2019-04-07T03:09:00.631Z,8.8
2019-04-07T03:10:02.708Z,8.9
2019-04-07T03:11:03.354Z,8.9
2019-04-07T03:12:05.208Z,8.9
2019-04-07T03:13:07.208Z,8.8
2019-04-07T03:14:07.680Z,8.9
2019-04-07T03:15:09.187Z,8.9
2019-04-07T03:16:10.618Z,8.9
2019-04-07T03:17:12.010Z,8.8
2019-04-07T03:18:14.207Z,8.8
2019-04-07T03:19:15.155Z,8.9
2019-04-07T03:20:16.745Z,8.9
2019-04-07T03:21:17.610Z,8.8
2019-04-07T03:22:19.082Z,8.9
2019-04-07T03:23:20.479Z,8.9
2019-04-07T03:24:21.871Z,8.7
2019-04-07T03:25:24.007Z,8.7
2019-04-07T03:26:24.585Z,8.7
2019-04-07T03:27:25.983Z,8.7
2019-04-07T03:28:27.297Z,8.7
2019-04-07T03:29:28.567Z,8.7
2019-04-07T03:30:32.520Z,8.7
2019-04-07T03:31:32.335Z,8.8
2019-04-07T03:32:33.703Z,8.8
2019-04-07T03:33:37.194Z,8.7
2019-04-07T03:34:36.334Z,8.7
2019-04-07T03:35:38.380Z,8.7
2019-04-07T03:37:09.728Z,8.6
2019-04-07T03:37:44.328Z,8.6
2019-04-07T03:38:41.132Z,8.7
2019-04-07T03:39:42.497Z,8.6
2019-04-07T03:40:44.097Z,8.6
2019-04-07T03:41:44.557Z,8.6
2019-04-07T03:42:45.907Z,8.7
2019-04-07T03:43:47.257Z,8.6
2019-04-07T03:44:48.981Z,8.6
2019-04-07T03:45:50.018Z,8.5
2019-04-07T03:46:51.240Z,8.5
2019-04-07T03:47:52.606Z,8.5
2019-04-07T03:48:53.955Z,8.5
2019-04-07T03:49:55.310Z,8.5
2019-04-07T03:50:56.914Z,8.4
2019-04-07T03:51:58.115Z,8.4
2019-04-07T03:52:59.316Z,8.4
2019-04-07T03:54:00.739Z,8.4
2019-04-07T03:55:02.009Z,8.4
2019-04-07T03:56:03.912Z,8.3
2019-04-07T03:57:04.789Z,8.3
2019-04-07T03:58:05.984Z,8.4
2019-04-07T03:59:07.619Z,8.4
2019-04-07T04:00:08.671Z,8.3
2019-04-07T04:01:10.194Z,8.4
2019-04-07T04:02:12.023Z,8.4
2019-04-07T04:03:12.899Z,8.3
2019-04-07T04:04:13.937Z,8.3
2019-04-07T04:05:15.290Z,8.4
2019-04-07T04:06:17.391Z,8.4
2019-04-07T04:07:26.635Z,8.4
2019-04-07T04:08:19.330Z,8.5
2019-04-07T04:09:20.791Z,8.5
2019-04-07T04:10:22.237Z,8.5
2019-04-07T04:11:23.653Z,8.5
2019-04-07T04:12:25.515Z,8.6
2019-04-07T04:13:25.838Z,8.5
2019-04-07T04:14:27.332Z,8.6
2019-04-07T04:15:28.495Z,8.6
2019-04-07T04:16:29.853Z,8.6
2019-04-07T04:17:31.201Z,8.6
2019-04-07T04:18:32.551Z,8.6
2019-04-07T04:19:34.704Z,8.6
2019-04-07T04:20:35.221Z,8.6
2019-04-07T04:21:36.606Z,8.6
2019-04-07T04:22:38.037Z,8.7
2019-04-07T04:23:41.551Z,8.6
2019-04-07T04:24:40.556Z,8.6
2019-04-07T04:25:42.756Z,8.6
2019-04-07T04:26:44.026Z,8.7
2019-04-07T04:27:44.561Z,8.6
2019-04-07T04:28:46.211Z,8.6
2019-04-07T04:29:50.654Z,8.6
2019-04-07T04:30:48.546Z,8.6
2019-04-07T04:31:49.931Z,8.8
2019-04-07T04:32:52.141Z,8.7
2019-04-07T04:33:53.414Z,8.6
2019-04-07T04:34:54.574Z,8.6
2019-04-07T04:35:55.876Z,8.7
2019-04-07T04:36:56.591Z,8.7
2019-04-07T04:37:57.913Z,8.6
2019-04-07T04:39:00.481Z,8.7
2019-04-07T04:40:01.392Z,8.7
2019-04-07T04:41:02.758Z,8.6
2019-04-07T04:42:03.959Z,8.5
2019-04-07T04:43:04.694Z,8.6
2019-04-07T04:44:06.636Z,8.5
2019-04-07T04:45:08.061Z,8.6
2019-04-07T04:46:09.981Z,8.6
2019-04-07T04:47:10.219Z,8.6
2019-04-07T04:48:11.881Z,8.5
2019-04-07T04:49:12.589Z,8.5
2019-04-07T04:50:14.809Z,8.4
2019-04-07T04:51:15.259Z,8.5
2019-04-07T04:52:16.772Z,8.6
2019-04-07T04:53:18.444Z,8.5
2019-04-07T04:54:19.431Z,8.5
2019-04-07T04:55:20.663Z,8.5
2019-04-07T04:56:22.759Z,8.4
2019-04-07T04:57:23.319Z,8.5
2019-04-07T04:58:24.767Z,8.4
2019-04-07T04:59:25.998Z,8.5
2019-04-07T05:00:27.346Z,8.4
2019-04-07T05:01:28.706Z,8.5
2019-04-07T05:02:30.089Z,8.5
2019-04-07T05:03:31.574Z,8.5
2019-04-07T05:04:32.826Z,8.5
2019-04-07T05:05:34.470Z,8.5
2019-04-07T05:06:35.708Z,8.5
2019-04-07T05:07:47.943Z,8.3
2019-04-07T05:08:39.107Z,8.3
2019-04-07T05:09:44.368Z,8.3
2019-04-07T05:10:40.805Z,8.3
2019-04-07T05:11:42.860Z,8.4
2019-04-07T05:12:43.526Z,8.4
2019-04-07T05:13:44.954Z,8.4
2019-04-07T05:14:46.249Z,8.4
2019-04-07T05:15:47.844Z,8.3
2019-04-07T05:16:49.136Z,8.3
2019-04-07T05:17:50.372Z,8.3
2019-04-07T05:18:51.851Z,8.3
2019-04-07T05:19:53.397Z,8.3
2019-04-07T05:20:54.297Z,8.3
2019-04-07T05:21:55.854Z,8.3
2019-04-07T05:22:57.616Z,8.3
2019-04-07T05:23:58.303Z,8.3
2019-04-07T05:24:59.687Z,8.3
2019-04-07T05:26:01.067Z,8.3
2019-04-07T05:27:03.102Z,8.4
2019-04-07T05:28:03.775Z,8.3
2019-04-07T05:29:05.871Z,8.3
2019-04-07T05:30:06.664Z,8.3
2019-04-07T05:31:07.832Z,8.4
2019-04-07T05:32:09.585Z,8.4
2019-04-07T05:33:11.071Z,8.4
2019-04-07T05:34:15.531Z,8.4
2019-04-07T05:35:13.286Z,8.4
2019-04-07T05:36:14.758Z,8.3
2019-04-07T05:37:16.627Z,8.4
2019-04-07T05:38:17.440Z,8.4
2019-04-07T05:39:18.591Z,8.4
2019-04-07T05:40:20.087Z,8.4
2019-04-07T05:41:21.852Z,8.5
2019-04-07T05:42:22.708Z,8.4
2019-04-07T05:43:24.113Z,8.5
2019-04-07T05:44:25.463Z,8.5
2019-04-07T05:45:27.034Z,8.5
2019-04-07T05:46:28.382Z,8.6
2019-04-07T05:47:29.835Z,8.5
2019-04-07T05:48:31.527Z,8.5
2019-04-07T05:49:32.474Z,8.5
2019-04-07T05:50:33.618Z,8.6
2019-04-07T05:51:35.017Z,8.7
2019-04-07T05:52:39.495Z,8.7
2019-04-07T05:53:37.747Z,8.6
2019-04-07T05:54:39.382Z,8.6
2019-04-07T05:55:40.475Z,8.6
2019-04-07T05:56:41.832Z,8.6
2019-04-07T05:57:43.221Z,8.7
2019-04-07T05:58:44.551Z,8.7
2019-04-07T05:59:46.018Z,8.7
2019-04-07T06:00:48.619Z,8.7
2019-04-07T06:01:50.557Z,8.7
2019-04-07T06:02:50.693Z,8.7
2019-04-07T06:03:51.264Z,8.8
2019-04-07T06:04:52.621Z,8.8
2019-04-07T06:05:54.007Z,8.8
2019-04-07T06:06:56.266Z,8.9
2019-04-07T06:07:56.905Z,8.8
2019-04-07T06:08:58.674Z,8.8
2019-04-07T06:09:59.994Z,8.9
2019-04-07T06:11:02.314Z,8.9
2019-04-07T06:12:06.012Z,8.9
2019-04-07T06:13:04.420Z,8.8
2019-04-07T06:14:06.254Z,8.8
2019-04-07T06:15:07.717Z,9.0
2019-04-07T06:16:09.491Z,9.0
2019-04-07T06:17:10.841Z,9.0
2019-04-07T06:18:11.849Z,9.0
2019-04-07T06:19:13.173Z,9.1
2019-04-07T06:20:15.902Z,9.0
2019-04-07T06:21:16.224Z,9.1
2019-04-07T06:22:19.863Z,9.0
2019-04-07T06:23:22.118Z,8.9
2019-04-07T06:24:22.252Z,9.0
2019-04-07T06:25:21.346Z,9.1
2019-04-07T06:26:22.737Z,8.9
2019-04-07T06:27:24.097Z,9.1
2019-04-07T06:28:26.605Z,9.1
2019-04-07T06:29:26.807Z,9.1
2019-04-07T06:30:30.278Z,9.1
2019-04-07T06:31:31.491Z,9.1
2019-04-07T06:32:30.977Z,9.2
2019-04-07T06:33:32.239Z,9.1
2019-04-07T06:34:33.818Z,9.2
2019-04-07T06:35:34.962Z,9.2
2019-04-07T06:36:36.292Z,9.3
2019-04-07T06:37:37.672Z,9.2
2019-04-07T06:38:43.331Z,9.3
2019-04-07T06:39:40.641Z,9.4
2019-04-07T06:40:42.578Z,9.4
2019-04-07T06:41:44.355Z,9.5
2019-04-07T06:42:45.736Z,9.5
2019-04-07T06:43:46.800Z,9.6
2019-04-07T06:44:50.502Z,9.8
2019-04-07T06:45:52.782Z,9.8
2019-04-07T06:46:51.233Z,10.0
2019-04-07T06:47:53.416Z,10.0
2019-04-07T06:48:53.964Z,10.1
2019-04-07T06:49:55.322Z,10.3
2019-04-07T06:50:59.121Z,10.4
2019-04-07T06:52:00.651Z,10.6
2019-04-07T06:52:59.360Z,10.7
2019-04-07T06:54:01.179Z,10.9
2019-04-07T06:55:02.062Z,10.9
2019-04-07T06:56:04.700Z,11.1
2019-04-07T06:57:06.318Z,11.3
2019-04-07T06:58:07.537Z,11.4
2019-04-07T06:59:10.993Z,11.6
2019-04-07T07:00:09.460Z,11.7
2019-04-07T07:01:10.144Z,11.7
2019-04-07T07:02:12.070Z,11.6
2019-04-07T07:03:12.926Z,11.7
2019-04-07T07:04:14.263Z,11.6
2019-04-07T07:05:15.676Z,11.7
2019-04-07T07:06:17.610Z,11.7
2019-04-07T07:07:19.142Z,11.7
2019-04-07T07:08:21.114Z,11.8
2019-04-07T07:09:21.277Z,11.8
2019-04-07T07:10:29.612Z,11.9
2019-04-07T07:11:28.899Z,12.0
2019-04-07T07:12:31.326Z,12.1
2019-04-07T07:13:31.283Z,12.1
2019-04-07T07:14:36.697Z,12.1
2019-04-07T07:15:33.877Z,12.2
2019-04-07T07:16:30.484Z,12.2
2019-04-07T07:17:32.258Z,12.2
2019-04-07T07:18:33.881Z,12.2
2019-04-07T07:19:34.684Z,12.3
2019-04-07T07:20:36.116Z,12.2
2019-04-07T07:21:39.308Z,12.3
2019-04-07T07:22:40.229Z,12.1
2019-04-07T07:23:44.920Z,12.2
2019-04-07T07:24:41.669Z,12.3
2019-04-07T07:25:42.581Z,12.2
2019-04-07T07:26:44.131Z,12.2
2019-04-07T07:27:46.063Z,12.1
2019-04-07T07:28:46.955Z,12.2
2019-04-07T07:29:49.585Z,12.1
2019-04-07T07:30:51.049Z,12.1
2019-04-07T07:31:52.805Z,12.1
2019-04-07T07:32:52.149Z,12.2
2019-04-07T07:33:53.975Z,12.2
2019-04-07T07:34:55.205Z,12.2
2019-04-07T07:35:56.983Z,12.3
2019-04-07T07:36:58.733Z,12.2
2019-04-07T07:37:59.564Z,12.4
2019-04-07T07:39:02.199Z,12.5
2019-04-07T07:40:01.923Z,12.6
2019-04-07T07:41:03.625Z,12.6
2019-04-07T07:42:04.205Z,12.8
2019-04-07T07:43:05.612Z,12.9
2019-04-07T07:44:08.643Z,13.1
2019-04-07T07:45:10.922Z,13.2
2019-04-07T07:46:09.628Z,13.2
2019-04-07T07:47:11.861Z,13.2
2019-04-07T07:48:12.435Z,13.2
2019-04-07T07:49:13.688Z,13.1
2019-04-07T07:50:15.398Z,13.1
2019-04-07T07:51:16.494Z,13.0
2019-04-07T07:52:20.638Z,13.0
2019-04-07T07:53:22.159Z,13.0
2019-04-07T07:54:20.692Z,13.1
2019-04-07T07:55:21.942Z,13.1
2019-04-07T07:56:23.386Z,13.1
2019-04-07T07:57:24.911Z,13.2
2019-04-07T07:58:28.798Z,13.0
2019-04-07T07:59:30.725Z,13.0
2019-04-07T08:00:28.414Z,13.1
2019-04-07T08:01:29.940Z,13.0
2019-04-07T08:02:31.839Z,13.0
2019-04-07T08:03:32.473Z,13.0
2019-04-07T08:04:34.586Z,12.9
2019-04-07T08:05:35.185Z,13.0
2019-04-07T08:06:38.525Z,13.1
2019-04-07T08:07:37.895Z,13.2
2019-04-07T08:08:39.593Z,13.3
2019-04-07T08:09:42.005Z,13.5
2019-04-07T08:10:42.669Z,13.5
2019-04-07T08:11:43.521Z,13.6
2019-04-07T08:12:45.445Z,13.6
2019-04-07T08:13:46.903Z,13.6
2019-04-07T08:14:50.405Z,13.6
2019-04-07T08:15:49.364Z,13.7
2019-04-07T08:16:50.148Z,13.8
2019-04-07T08:17:52.029Z,13.8
2019-04-07T08:18:52.640Z,13.8
2019-04-07T08:19:54.031Z,13.9
2019-04-07T08:20:55.393Z,14.1
2019-04-07T08:21:57.292Z,14.2
2019-04-07T08:22:58.113Z,14.4
2019-04-07T08:23:59.501Z,14.4
2019-04-07T08:25:01.034Z,14.6
2019-04-07T08:26:02.803Z,14.7
2019-04-07T08:27:04.057Z,14.8
2019-04-07T08:28:04.923Z,15.0
2019-04-07T08:29:07.675Z,15.3
2019-04-07T08:30:12.508Z,15.4
2019-04-07T08:31:08.973Z,15.6
2019-04-07T08:32:11.052Z,15.6
2019-04-07T08:33:11.685Z,15.7
2019-04-07T08:34:13.099Z,15.7
2019-04-07T08:35:14.461Z,15.7
2019-04-07T08:36:15.805Z,15.6
2019-04-07T08:37:17.853Z,15.5
2019-04-07T08:38:19.993Z,15.4
2019-04-07T08:39:25.224Z,15.3
2019-04-07T08:40:21.330Z,15.2
2019-04-07T08:41:23.406Z,15.1
2019-04-07T08:42:25.153Z,15.1
2019-04-07T08:43:25.234Z,15.1
2019-04-07T08:44:29.324Z,15.1
2019-04-07T08:45:30.015Z,15.2
2019-04-07T08:46:31.775Z,15.3
2019-04-07T08:47:31.237Z,15.2
2019-04-07T08:48:32.204Z,15.2
2019-04-07T08:49:34.548Z,15.2
2019-04-07T08:50:35.026Z,15.3
2019-04-07T08:51:36.183Z,15.4
2019-04-07T08:52:40.749Z,15.4
2019-04-07T08:53:38.895Z,15.3
2019-04-07T08:54:40.095Z,15.3
2019-04-07T08:55:41.707Z,15.4
2019-04-07T08:56:43.557Z,15.6
2019-04-07T08:57:44.528Z,15.6
2019-04-07T08:58:45.723Z,15.7
2019-04-07T08:59:47.069Z,15.7
2019-04-07T09:00:50.961Z,15.7
2019-04-07T09:01:52.274Z,15.7
2019-04-07T09:03:01.624Z,15.9
2019-04-07T09:03:52.707Z,16.0
2019-04-07T09:04:54.590Z,16.1
2019-04-07T09:05:57.422Z,16.2
2019-04-07T09:06:59.349Z,16.2
2019-04-07T09:07:57.837Z,16.2
2019-04-07T09:08:59.215Z,16.3
2019-04-07T09:10:00.965Z,16.5
2019-04-07T09:11:02.051Z,16.6
2019-04-07T09:12:03.319Z,16.6
2019-04-07T09:13:07.769Z,16.6
2019-04-07T09:14:06.361Z,16.6
2019-04-07T09:15:09.481Z,16.5
2019-04-07T09:16:11.489Z,16.5
2019-04-07T09:17:10.507Z,16.7
2019-04-07T09:18:14.268Z,16.7
2019-04-07T09:19:12.785Z,16.7
2019-04-07T09:20:14.650Z,16.6
2019-04-07T09:21:17.247Z,16.5
2019-04-07T09:22:20.080Z,16.5
2019-04-07T09:23:18.978Z,16.5
2019-04-07T09:24:19.917Z,16.7
2019-04-07T09:25:21.463Z,16.9
2019-04-07T09:26:22.943Z,17.1
2019-04-07T09:27:24.577Z,17.1
2019-04-07T09:28:25.359Z,17.1
2019-04-07T09:29:28.182Z,17.0
2019-04-07T09:30:28.235Z,17.1
2019-04-07T09:31:30.336Z,17.1
2019-04-07T09:32:31.033Z,17.1
2019-04-07T09:33:34.750Z,17.2
2019-04-07T09:34:34.524Z,17.1
2019-04-07T09:35:36.114Z,17.1
2019-04-07T09:36:37.289Z,17.0
2019-04-07T09:37:38.799Z,17.1
2019-04-07T09:38:39.660Z,17.0
2019-04-07T09:39:54.781Z,16.8
2019-04-07T09:40:42.303Z,16.9
2019-04-07T09:41:43.951Z,16.9
2019-04-07T09:42:44.923Z,17.0
2019-04-07T09:43:46.313Z,17.2
2019-04-07T09:44:47.708Z,17.2
2019-04-07T09:45:49.159Z,17.3
2019-04-07T09:46:51.393Z,17.4
2019-04-07T09:47:51.936Z,17.3
2019-04-07T09:48:53.373Z,17.2
2019-04-07T09:49:56.708Z,17.3
2019-04-07T09:50:58.676Z,17.3
2019-04-07T09:51:57.577Z,17.3
2019-04-07T09:52:59.006Z,17.4
2019-04-07T09:54:00.418Z,17.5
2019-04-07T09:55:01.872Z,17.5
2019-04-07T09:56:03.783Z,17.6
2019-04-07T09:57:06.400Z,17.6
2019-04-07T09:58:08.782Z,17.6
2019-04-07T09:59:07.870Z,17.5
2019-04-07T10:00:09.628Z,17.7
2019-04-07T10:01:10.936Z,17.6
2019-04-07T10:02:11.537Z,17.6
2019-04-07T10:03:14.910Z,17.6
2019-04-07T10:04:14.237Z,17.7
2019-04-07T10:05:15.611Z,17.8
2019-04-07T10:06:16.980Z,17.8
2019-04-07T10:07:18.428Z,17.9
2019-04-07T10:08:20.267Z,17.9
2019-04-07T10:09:21.747Z,18.0
2019-04-07T10:10:22.631Z,18.2
2019-04-07T10:11:23.744Z,18.3
2019-04-07T10:12:27.693Z,18.2
2019-04-07T10:13:26.486Z,18.2
2019-04-07T10:14:27.908Z,18.2
2019-04-07T10:15:29.623Z,18.3
2019-04-07T10:16:33.113Z,18.4
2019-04-07T10:17:31.969Z,18.5
2019-04-07T10:18:34.058Z,18.5
2019-04-07T10:19:35.119Z,18.6
2019-04-07T10:20:36.822Z,18.6
2019-04-07T10:21:38.216Z,18.5
2019-04-07T10:22:39.517Z,18.5
2019-04-07T10:23:40.401Z,18.5
2019-04-07T10:24:41.538Z,18.6
2019-04-07T10:25:43.410Z,18.7
2019-04-07T10:26:44.193Z,18.7
2019-04-07T10:27:46.393Z,18.7
2019-04-07T10:28:47.664Z,18.5
2019-04-07T10:29:49.191Z,18.5
2019-04-07T10:30:49.984Z,18.3
2019-04-07T10:31:51.844Z,18.3
2019-04-07T10:32:53.098Z,18.5
2019-04-07T10:33:54.625Z,18.6
2019-04-07T10:34:57.374Z,18.7
2019-04-07T10:35:58.706Z,18.8
2019-04-07T10:37:02.663Z,18.9
2019-04-07T10:38:01.977Z,18.9
2019-04-07T10:39:04.213Z,18.8
2019-04-07T10:40:16.557Z,18.7
2019-04-07T10:41:06.814Z,18.5
2019-04-07T10:42:08.769Z,18.5
2019-04-07T10:43:10.597Z,18.6
2019-04-07T10:44:12.790Z,18.5
2019-04-07T10:45:13.733Z,18.6
2019-04-07T10:46:15.596Z,18.6
2019-04-07T10:47:17.283Z,18.5
2019-04-07T10:48:19.060Z,18.6
2019-04-07T10:49:21.263Z,18.7
2019-04-07T10:50:22.158Z,18.7
2019-04-07T10:51:23.159Z,18.9
2019-04-07T10:52:24.538Z,19.1
2019-04-07T10:53:26.255Z,19.1
2019-04-07T10:54:27.332Z,19.1
2019-04-07T10:55:28.881Z,19.1
2019-04-07T10:56:30.826Z,19.2
2019-04-07T10:57:32.183Z,19.2
2019-04-07T10:58:33.248Z,19.2
2019-04-07T10:59:34.235Z,19.3
2019-04-07T11:00:35.440Z,19.2
2019-04-07T11:01:37.881Z,19.4
2019-04-07T11:02:38.222Z,19.3
2019-04-07T11:03:40.467Z,19.3
2019-04-07T11:04:41.071Z,19.3
2019-04-07T11:05:42.710Z,19.3
2019-04-07T11:06:43.869Z,19.3
2019-04-07T11:07:45.813Z,19.2
2019-04-07T11:08:46.613Z,19.1
2019-04-07T11:09:47.684Z,19.1
2019-04-07T11:10:49.087Z,19.1
2019-04-07T11:11:51.107Z,19.1
2019-04-07T11:12:52.449Z,19.2
2019-04-07T11:13:53.427Z,19.2
2019-04-07T11:14:54.747Z,19.1
2019-04-07T11:15:55.892Z,19.1
2019-04-07T11:16:59.864Z,19.1
2019-04-07T11:17:59.258Z,19.1
2019-04-07T11:18:59.973Z,19.2
2019-04-07T11:20:40.901Z,19.2
2019-04-07T11:21:42.300Z,19.3
2019-04-07T11:23:15.557Z,19.4
2019-04-07T11:24:16.544Z,19.6
2019-04-07T11:25:49.358Z,19.6
2019-04-07T11:26:50.173Z,19.6
2019-04-07T11:27:51.563Z,19.6
2019-04-07T11:28:53.677Z,19.6
2019-04-07T11:29:54.973Z,19.4
2019-04-07T11:30:56.308Z,19.1
2019-04-07T11:31:56.957Z,19.0
2019-04-07T11:32:58.829Z,18.9
2019-04-07T11:33:59.692Z,18.7
2019-04-07T11:35:01.063Z,18.7
2019-04-07T11:36:02.457Z,18.7
2019-04-07T11:37:03.846Z,18.7
2019-04-07T11:38:05.749Z,18.6
2019-04-07T11:39:06.988Z,18.4
2019-04-07T11:40:08.282Z,18.5
2019-04-07T11:41:09.241Z,18.5
2019-04-07T11:42:10.636Z,18.5
2019-04-07T11:43:12.019Z,18.5
2019-04-07T11:44:13.847Z,18.5
2019-04-07T11:45:14.941Z,18.5
2019-04-07T11:46:16.436Z,18.5
2019-04-07T11:47:17.485Z,18.4
2019-04-07T11:48:18.752Z,18.3
2019-04-07T11:49:21.376Z,18.2
2019-04-07T11:50:22.229Z,18.2
2019-04-07T11:51:24.261Z,18.3
2019-04-07T11:52:24.606Z,18.4
2019-04-07T11:53:25.955Z,18.5
2019-04-07T11:54:27.188Z,18.4
2019-04-07T11:55:29.429Z,18.5
2019-04-07T11:56:30.711Z,18.6
2019-04-07T11:57:31.943Z,18.7
2019-04-07T11:58:33.704Z,18.8
2019-04-07T11:59:33.914Z,19.0
2019-04-07T12:00:37.793Z,19.0
2019-04-07T12:01:36.643Z,19.1
2019-04-07T12:02:40.384Z,19.1
2019-04-07T12:03:40.423Z,19.2
2019-04-07T12:04:41.651Z,19.4
2019-04-07T12:05:42.490Z,19.6
2019-04-07T12:06:46.586Z,19.7
2019-04-07T12:07:45.642Z,19.7
2019-04-07T12:08:46.745Z,19.8
2019-04-07T12:09:47.727Z,19.9
2019-04-07T12:10:56.338Z,19.9
2019-04-07T12:11:50.443Z,20.0
2019-04-07T12:12:51.513Z,20.1
2019-04-07T12:13:52.909Z,20.2
2019-04-07T12:14:54.685Z,20.3
2019-04-07T12:15:56.687Z,20.3
2019-04-07T12:16:58.437Z,20.3
2019-04-07T12:17:59.111Z,20.3
2019-04-07T12:19:00.124Z,20.3
2019-04-07T12:20:01.018Z,20.3
2019-04-07T12:21:04.258Z,20.3
2019-04-07T12:22:05.650Z,20.4
2019-04-07T12:23:05.860Z,20.5
2019-04-07T12:24:06.442Z,20.5
2019-04-07T12:25:07.848Z,20.6
2019-04-07T12:26:09.231Z,20.6
2019-04-07T12:27:11.635Z,20.7
2019-04-07T12:28:14.634Z,20.7
2019-04-07T12:29:13.307Z,20.9
2019-04-07T12:30:15.460Z,20.9
2019-04-07T12:31:16.305Z,21.0
2019-04-07T12:32:18.113Z,21.0
2019-04-07T12:33:19.068Z,20.9
2019-04-07T12:34:20.151Z,20.7
2019-04-07T12:35:21.525Z,20.6
2019-04-07T12:36:26.648Z,20.6
2019-04-07T12:37:24.239Z,20.4
2019-04-07T12:38:26.353Z,20.3
2019-04-07T12:39:26.963Z,20.2
2019-04-07T12:40:28.999Z,20.3
2019-04-07T12:41:31.821Z,20.3
2019-04-07T12:42:31.584Z,20.1
2019-04-07T12:43:32.712Z,20.1
2019-04-07T12:44:34.260Z,20.1
2019-04-07T12:45:36.111Z,20.1
2019-04-07T12:46:36.527Z,20.0
2019-04-07T12:47:37.763Z,20.0
2019-04-07T12:48:39.180Z,19.8
2019-04-07T12:49:44.385Z,19.8
2019-04-07T12:50:42.607Z,19.8
2019-04-07T12:51:44.102Z,19.8
2019-04-07T12:52:45.162Z,19.7
2019-04-07T12:53:45.821Z,19.7
2019-04-07T12:54:47.216Z,19.6
2019-04-07T12:55:55.014Z,19.7
2019-04-07T12:56:49.929Z,19.7
2019-04-07T12:57:52.082Z,19.6
2019-04-07T12:58:52.720Z,19.6
2019-04-07T12:59:54.027Z,19.6
2019-04-07T13:01:00.010Z,19.6
2019-04-07T13:01:57.619Z,19.7
2019-04-07T13:02:58.488Z,19.7
2019-04-07T13:04:00.203Z,19.7
2019-04-07T13:05:02.921Z,19.7
2019-04-07T13:06:06.215Z,19.7
2019-04-07T13:07:03.477Z,19.7
2019-04-07T13:08:04.775Z,19.8
2019-04-07T13:09:06.149Z,19.6
2019-04-07T13:10:08.482Z,19.7
2019-04-07T13:11:09.950Z,19.7
2019-04-07T13:12:10.208Z,19.8
2019-04-07T13:13:12.169Z,19.8
2019-04-07T13:14:12.916Z,19.7
2019-04-07T13:15:15.507Z,19.6
2019-04-07T13:16:17.662Z,19.5
2019-04-07T13:17:17.015Z,19.2
2019-04-07T13:18:18.748Z,19.1
2019-04-07T13:19:19.897Z,19.2
2019-04-07T13:20:21.506Z,19.2
2019-04-07T13:21:24.542Z,19.2
2019-04-07T13:22:23.699Z,19.4
2019-04-07T13:23:25.085Z,19.4
2019-04-07T13:24:31.143Z,19.6
2019-04-07T13:25:29.813Z,19.6
2019-04-07T13:26:32.049Z,19.6
2019-04-07T13:27:32.594Z,19.5
2019-04-07T13:28:32.591Z,19.5
2019-04-07T13:29:33.479Z,19.7
2019-04-07T13:30:34.700Z,19.7
2019-04-07T13:31:36.441Z,19.7
2019-04-07T13:32:40.937Z,19.8
2019-04-07T13:33:39.413Z,19.8
2019-04-07T13:34:39.862Z,19.8
2019-04-07T13:35:41.235Z,19.8
2019-04-07T13:36:42.793Z,19.8
2019-04-07T13:37:44.851Z,19.9
2019-04-07T13:38:45.768Z,19.8
2019-04-07T13:39:47.330Z,19.8
2019-04-07T13:40:48.091Z,19.9
2019-04-07T13:41:53.335Z,20.0
2019-04-07T13:42:50.936Z,19.9
2019-04-07T13:43:52.785Z,19.9
2019-04-07T13:44:53.737Z,20.0
2019-04-07T13:45:55.724Z,20.0
2019-04-07T13:46:55.991Z,20.2
2019-04-07T13:47:57.880Z,20.1
2019-04-07T13:49:00.438Z,20.0
2019-04-07T13:50:02.108Z,20.1
2019-04-07T13:51:02.085Z,20.1
2019-04-07T13:52:02.755Z,20.0